SBOSBO SOU / EGHI
Speedbird OnlineSpeedbird Online SOU / EGHI

Southampton Airport
12:35 16.5°C

Location Southampton, United Kingdom
Latitude: 50.95029830932617
Longitude: -1.3567999601364136
Altitude 13 Meter / 44 Feet
Distance 121 KM / 75 Miles
from London.
Time Zone UTC +1 hours (Europe/London)
Codes IATA: SOU
ICAO: EGHI
METAR EGHI 271120Z 20010KT 170V230 9999 SCT018 BKN048 16/13 Q1016
TAF TAF EGHI 270755Z 2709/2718 21009KT 9999 SCT030 TEMPO 2709/2715 4000 SHRA BKN014
Weather As Of 27 Jun 2022 12:35
Description Broken clouds
Wind 19 km/h from South (200°)
Cloud Cover 75%
Precipitation Rain: none, Snow: none
Sunrise 04:53
Sunset 21:23
Rotations During the last 90 days there were
16 flights from PMI
15 flights from EGC
14 flights from AGP
11 flights from EDI
8 flights from IBZ
8 flights from ALC
7 flights from FAO
7 flights from DUB
7 flights from LIG
6 flights from CMF
4 flights from FLR
4 flights from NCE
3 flights from SZG
2 flights from LCY
1 flights from NWI
1 flights from JMK
22 flights to PMI
17 flights to AGP
14 flights to EGC
11 flights to EDI
9 flights to IBZ
9 flights to ALC
8 flights to FAO
7 flights to JMK
6 flights to LIG
6 flights to CMF
6 flights to DUB
4 flights to NCE
3 flights to FLR
3 flights to SZG
3 flights to LCY


© 2017-2022 Speedbird Online